Airfield :
LOGIN :

Register | Disclaimer

   EN    FR    IT 

 










Legend :    VFR   Marginal VFR   IFR   Intensive IFR   Very Intensive IFR
Visi :
Ceiling :
>= 8 km
>= 3000ft
5 to 8 km
1000 to 3000 ft
1500m to 5 km
500 to 1000 ft
800 to 1500m
200 to 500 ft
< 800m
< 200 ft
Symbols :   Thunderstorms  Fog  Heavy snow  Heavy precipitations  Wind > 20 kt
SIGMETs :     Misc.  Thunderstorms  Icing  Turbulence  Mountain Waves  Volcanic Ashes







- Airport Elevation : 6 ft
- IATA code : PSA


LIRP - Galileo Galilei Pisa

CURRENT METAR :
  • 262245Z 20010KT 9999 SCT020 BKN030 17/14 Q1009 NOSIG

EXPIRED METARs :
  • 262215Z 20009KT 9999 BKN020 BKN060 16/14 Q1009 NOSIG
  • 262145Z 20005KT 9999 BKN020 BKN060 16/14 Q1009 NOSIG
  • 262115Z 16006KT 9999 SCT020 BKN060 16/14 Q1009 NOSIG
  • 262045Z 16007KT 9999 SCT020 BKN060 16/14 Q1009 NOSIG
  • 262015Z 16006KT 9999 SCT020 BKN040 16/14 Q1009 NOSIG

TAF TAF LIRP
Valid from the 26 at 18:00 until the 27 at 18:00 UTC


261700Z 2618/2718 19013KT 9999 BKN025 BKN040
TEMPO 2701/2707 19007KT 5000 RA BR SCT015 BKN040
BECMG 2708/2710 25004KT 9999 SCT020 SCT050
BECMG 2712/2714 5000 RA BR BKN010
No reported NOTAMs for that airfield.



MET'MAP, your aeronautical weather chart ! - Copyright ORBIFLY December 2007 - Disclaimer

ORBIFLY MET'MAP TEAM :

Programming & Development : Alexandra Zaïnal
Concept & Development : Baudouin d'Aumeries
Co-Development & Prog : Marc-Olivier Méhu
Technical & hardware support : Manuel Goepfert

Contact : metmap@orbifly.com




SOURCES & CREDITS :

   NOAA